sensor_id;sensor_type;location;lat;lon;timestamp;P1;durP1;ratioP1;P2;durP2;ratioP2
46651;SDS011;32377;52.182;5.398;2022-07-10T00:00:33;7.93;;;1.67;;
46651;SDS011;32377;52.182;5.398;2022-07-10T00:03:00;7.68;;;1.90;;
46651;SDS011;32377;52.182;5.398;2022-07-10T00:05:27;8.80;;;2.47;;
46651;SDS011;32377;52.182;5.398;2022-07-10T00:07:53;7.03;;;1.60;;
46651;SDS011;32377;52.182;5.398;2022-07-10T00:10:19;11.95;;;2.00;;
46651;SDS011;32377;52.182;5.398;2022-07-10T00:12:46;7.53;;;1.58;;
46651;SDS011;32377;52.182;5.398;2022-07-10T00:15:13;5.40;;;1.52;;
46651;SDS011;32377;52.182;5.398;2022-07-10T00:17:39;8.75;;;2.10;;
46651;SDS011;32377;52.182;5.398;2022-07-10T00:20:06;5.57;;;1.67;;
46651;SDS011;32377;52.182;5.398;2022-07-10T00:22:33;8.38;;;1.95;;
46651;SDS011;32377;52.182;5.398;2022-07-10T00:25:00;11.43;;;2.35;;
46651;SDS011;32377;52.182;5.398;2022-07-10T00:27:26;10.52;;;2.22;;
46651;SDS011;32377;52.182;5.398;2022-07-10T00:29:51;9.30;;;2.03;;
46651;SDS011;32377;52.182;5.398;2022-07-10T00:32:17;11.35;;;2.35;;
46651;SDS011;32377;52.182;5.398;2022-07-10T00:34:43;8.10;;;1.70;;
46651;SDS011;32377;52.182;5.398;2022-07-10T00:37:08;8.95;;;1.55;;
46651;SDS011;32377;52.182;5.398;2022-07-10T00:39:34;10.30;;;2.13;;
46651;SDS011;32377;52.182;5.398;2022-07-10T00:42:06;11.50;;;2.58;;
46651;SDS011;32377;52.182;5.398;2022-07-10T00:44:33;9.40;;;1.77;;
46651;SDS011;32377;52.182;5.398;2022-07-10T00:46:59;7.95;;;2.00;;
46651;SDS011;32377;52.182;5.398;2022-07-10T00:49:24;7.63;;;1.98;;
46651;SDS011;32377;52.182;5.398;2022-07-10T00:51:50;8.55;;;2.17;;
46651;SDS011;32377;52.182;5.398;2022-07-10T00:54:16;8.68;;;2.00;;
46651;SDS011;32377;52.182;5.398;2022-07-10T00:56:42;10.57;;;2.28;;
46651;SDS011;32377;52.182;5.398;2022-07-10T00:59:09;11.25;;;1.60;;
46651;SDS011;32377;52.182;5.398;2022-07-10T01:01:34;12.57;;;1.98;;
46651;SDS011;32377;52.182;5.398;2022-07-10T01:04:01;7.47;;;1.90;;
46651;SDS011;32377;52.182;5.398;2022-07-10T01:06:26;4.43;;;1.50;;
46651;SDS011;32377;52.182;5.398;2022-07-10T01:08:52;3.58;;;1.30;;
46651;SDS011;32377;52.182;5.398;2022-07-10T01:11:18;8.23;;;1.80;;
46651;SDS011;32377;52.182;5.398;2022-07-10T01:13:43;6.35;;;1.55;;
46651;SDS011;32377;52.182;5.398;2022-07-10T01:16:10;7.63;;;1.58;;
46651;SDS011;32377;52.182;5.398;2022-07-10T01:18:36;5.63;;;1.23;;
46651;SDS011;32377;52.182;5.398;2022-07-10T01:21:02;8.18;;;2.00;;
46651;SDS011;32377;52.182;5.398;2022-07-10T01:23:28;7.32;;;1.67;;
46651;SDS011;32377;52.182;5.398;2022-07-10T01:25:53;6.75;;;1.23;;
46651;SDS011;32377;52.182;5.398;2022-07-10T01:28:20;7.53;;;1.60;;
46651;SDS011;32377;52.182;5.398;2022-07-10T01:30:46;9.63;;;1.80;;
46651;SDS011;32377;52.182;5.398;2022-07-10T01:33:12;9.38;;;1.75;;
46651;SDS011;32377;52.182;5.398;2022-07-10T01:35:38;7.18;;;1.58;;
46651;SDS011;32377;52.182;5.398;2022-07-10T01:38:04;5.40;;;1.13;;
46651;SDS011;32377;52.182;5.398;2022-07-10T01:40:30;6.57;;;1.60;;
46651;SDS011;32377;52.182;5.398;2022-07-10T01:42:56;8.52;;;2.15;;
46651;SDS011;32377;52.182;5.398;2022-07-10T01:45:21;15.60;;;2.22;;
46651;SDS011;32377;52.182;5.398;2022-07-10T01:47:47;7.65;;;2.00;;
46651;SDS011;32377;52.182;5.398;2022-07-10T01:50:12;6.53;;;1.80;;
46651;SDS011;32377;52.182;5.398;2022-07-10T01:52:39;9.23;;;2.03;;
46651;SDS011;32377;52.182;5.398;2022-07-10T01:55:05;7.53;;;1.90;;
46651;SDS011;32377;52.182;5.398;2022-07-10T01:57:31;10.70;;;2.63;;
46651;SDS011;32377;52.182;5.398;2022-07-10T01:59:57;11.77;;;1.88;;
46651;SDS011;32377;52.182;5.398;2022-07-10T02:02:23;13.07;;;2.53;;
46651;SDS011;32377;52.182;5.398;2022-07-10T02:04:49;6.47;;;1.95;;
46651;SDS011;32377;52.182;5.398;2022-07-10T02:07:15;9.77;;;2.58;;
46651;SDS011;32377;52.182;5.398;2022-07-10T02:09:43;7.00;;;2.00;;
46651;SDS011;32377;52.182;5.398;2022-07-10T02:12:11;6.57;;;2.00;;
46651;SDS011;32377;52.182;5.398;2022-07-10T02:14:38;11.13;;;2.33;;
46651;SDS011;32377;52.182;5.398;2022-07-10T02:17:04;8.45;;;1.92;;
46651;SDS011;32377;52.182;5.398;2022-07-10T02:19:31;10.27;;;2.13;;
46651;SDS011;32377;52.182;5.398;2022-07-10T02:21:57;16.58;;;1.80;;
46651;SDS011;32377;52.182;5.398;2022-07-10T02:24:22;8.43;;;2.17;;
46651;SDS011;32377;52.182;5.398;2022-07-10T02:26:48;7.28;;;1.95;;
46651;SDS011;32377;52.182;5.398;2022-07-10T02:29:14;9.65;;;2.53;;
46651;SDS011;32377;52.182;5.398;2022-07-10T02:31:40;11.90;;;2.38;;
46651;SDS011;32377;52.182;5.398;2022-07-10T02:34:07;9.55;;;2.17;;
46651;SDS011;32377;52.182;5.398;2022-07-10T02:36:36;6.65;;;2.10;;
46651;SDS011;32377;52.182;5.398;2022-07-10T02:39:04;11.18;;;1.85;;
46651;SDS011;32377;52.182;5.398;2022-07-10T02:41:30;6.38;;;1.70;;
46651;SDS011;32377;52.182;5.398;2022-07-10T02:43:56;11.07;;;2.13;;
46651;SDS011;32377;52.182;5.398;2022-07-10T02:46:21;7.18;;;1.45;;
46651;SDS011;32377;52.182;5.398;2022-07-10T02:48:47;6.90;;;2.22;;
46651;SDS011;32377;52.182;5.398;2022-07-10T02:51:13;11.55;;;2.42;;
46651;SDS011;32377;52.182;5.398;2022-07-10T02:53:38;10.05;;;1.85;;
46651;SDS011;32377;52.182;5.398;2022-07-10T02:56:04;14.27;;;2.10;;
46651;SDS011;32377;52.182;5.398;2022-07-10T02:58:30;8.40;;;2.00;;
46651;SDS011;32377;52.182;5.398;2022-07-10T03:00:56;7.15;;;1.90;;
46651;SDS011;32377;52.182;5.398;2022-07-10T03:03:22;8.05;;;2.08;;
46651;SDS011;32377;52.182;5.398;2022-07-10T03:05:47;8.52;;;2.13;;
46651;SDS011;32377;52.182;5.398;2022-07-10T03:08:13;9.25;;;2.08;;
46651;SDS011;32377;52.182;5.398;2022-07-10T03:10:38;8.98;;;1.95;;
46651;SDS011;32377;52.182;5.398;2022-07-10T03:13:05;7.90;;;2.03;;
46651;SDS011;32377;52.182;5.398;2022-07-10T03:15:31;12.90;;;2.38;;
46651;SDS011;32377;52.182;5.398;2022-07-10T03:17:56;12.38;;;1.67;;
46651;SDS011;32377;52.182;5.398;2022-07-10T03:20:22;6.85;;;1.50;;
46651;SDS011;32377;52.182;5.398;2022-07-10T03:22:48;6.65;;;1.98;;
46651;SDS011;32377;52.182;5.398;2022-07-10T03:25:13;5.88;;;2.00;;
46651;SDS011;32377;52.182;5.398;2022-07-10T03:27:39;7.88;;;1.90;;
46651;SDS011;32377;52.182;5.398;2022-07-10T03:30:05;12.13;;;1.83;;
46651;SDS011;32377;52.182;5.398;2022-07-10T03:32:31;7.70;;;1.50;;
46651;SDS011;32377;52.182;5.398;2022-07-10T03:34:57;4.22;;;1.63;;
46651;SDS011;32377;52.182;5.398;2022-07-10T03:37:23;6.00;;;1.38;;
46651;SDS011;32377;52.182;5.398;2022-07-10T03:39:48;7.70;;;2.10;;
46651;SDS011;32377;52.182;5.398;2022-07-10T03:42:14;7.57;;;1.98;;
46651;SDS011;32377;52.182;5.398;2022-07-10T03:44:40;5.50;;;1.90;;
46651;SDS011;32377;52.182;5.398;2022-07-10T03:47:05;9.75;;;1.85;;
46651;SDS011;32377;52.182;5.398;2022-07-10T03:49:31;9.52;;;1.80;;
46651;SDS011;32377;52.182;5.398;2022-07-10T03:52:00;10.57;;;1.98;;
46651;SDS011;32377;52.182;5.398;2022-07-10T03:54:27;13.93;;;1.48;;
46651;SDS011;32377;52.182;5.398;2022-07-10T03:56:54;5.18;;;1.58;;
46651;SDS011;32377;52.182;5.398;2022-07-10T03:59:39;12.68;;;1.65;;
46651;SDS011;32377;52.182;5.398;2022-07-10T04:02:05;7.85;;;2.15;;
46651;SDS011;32377;52.182;5.398;2022-07-10T04:04:31;8.27;;;1.80;;
46651;SDS011;32377;52.182;5.398;2022-07-10T04:06:56;10.60;;;2.08;;
46651;SDS011;32377;52.182;5.398;2022-07-10T04:09:22;9.98;;;2.33;;
46651;SDS011;32377;52.182;5.398;2022-07-10T04:11:48;12.65;;;1.70;;
46651;SDS011;32377;52.182;5.398;2022-07-10T04:14:13;6.88;;;1.50;;
46651;SDS011;32377;52.182;5.398;2022-07-10T04:16:39;9.20;;;2.10;;
46651;SDS011;32377;52.182;5.398;2022-07-10T04:19:04;7.65;;;1.75;;
46651;SDS011;32377;52.182;5.398;2022-07-10T04:21:30;9.23;;;1.90;;
46651;SDS011;32377;52.182;5.398;2022-07-10T04:23:55;9.55;;;1.90;;
46651;SDS011;32377;52.182;5.398;2022-07-10T04:26:21;7.68;;;1.80;;
46651;SDS011;32377;52.182;5.398;2022-07-10T04:28:46;7.53;;;2.20;;
46651;SDS011;32377;52.182;5.398;2022-07-10T04:31:12;7.55;;;1.77;;
46651;SDS011;32377;52.182;5.398;2022-07-10T04:33:37;13.82;;;2.75;;
46651;SDS011;32377;52.182;5.398;2022-07-10T04:36:03;10.48;;;2.28;;
46651;SDS011;32377;52.182;5.398;2022-07-10T04:38:29;10.52;;;2.38;;
46651;SDS011;32377;52.182;5.398;2022-07-10T04:40:56;6.45;;;1.95;;
46651;SDS011;32377;52.182;5.398;2022-07-10T04:43:22;7.00;;;1.80;;
46651;SDS011;32377;52.182;5.398;2022-07-10T04:45:47;11.27;;;2.15;;
46651;SDS011;32377;52.182;5.398;2022-07-10T04:48:13;10.00;;;1.88;;
46651;SDS011;32377;52.182;5.398;2022-07-10T04:50:38;11.90;;;2.78;;
46651;SDS011;32377;52.182;5.398;2022-07-10T04:53:04;13.02;;;1.92;;
46651;SDS011;32377;52.182;5.398;2022-07-10T04:55:29;9.00;;;2.15;;
46651;SDS011;32377;52.182;5.398;2022-07-10T04:57:55;12.43;;;2.25;;
46651;SDS011;32377;52.182;5.398;2022-07-10T05:00:20;9.70;;;2.40;;
46651;SDS011;32377;52.182;5.398;2022-07-10T05:02:46;10.63;;;2.53;;
46651;SDS011;32377;52.182;5.398;2022-07-10T05:05:12;5.93;;;2.08;;
46651;SDS011;32377;52.182;5.398;2022-07-10T05:07:38;14.38;;;2.38;;
46651;SDS011;32377;52.182;5.398;2022-07-10T05:10:03;9.57;;;1.98;;
46651;SDS011;32377;52.182;5.398;2022-07-10T05:12:29;8.50;;;2.20;;
46651;SDS011;32377;52.182;5.398;2022-07-10T05:14:55;12.73;;;2.60;;
46651;SDS011;32377;52.182;5.398;2022-07-10T05:17:22;12.18;;;1.95;;
46651;SDS011;32377;52.182;5.398;2022-07-10T05:19:47;14.07;;;3.13;;
46651;SDS011;32377;52.182;5.398;2022-07-10T05:22:13;12.80;;;2.58;;
46651;SDS011;32377;52.182;5.398;2022-07-10T05:24:38;11.93;;;2.72;;
46651;SDS011;32377;52.182;5.398;2022-07-10T05:27:04;11.00;;;2.47;;
46651;SDS011;32377;52.182;5.398;2022-07-10T05:29:30;13.70;;;2.53;;
46651;SDS011;32377;52.182;5.398;2022-07-10T05:31:55;10.10;;;2.13;;
46651;SDS011;32377;52.182;5.398;2022-07-10T05:34:21;9.95;;;2.42;;
46651;SDS011;32377;52.182;5.398;2022-07-10T05:36:47;13.20;;;2.95;;
46651;SDS011;32377;52.182;5.398;2022-07-10T05:39:12;10.60;;;2.22;;
46651;SDS011;32377;52.182;5.398;2022-07-10T05:41:38;9.02;;;2.35;;
46651;SDS011;32377;52.182;5.398;2022-07-10T05:44:03;9.80;;;2.25;;
46651;SDS011;32377;52.182;5.398;2022-07-10T05:46:29;7.40;;;2.00;;
46651;SDS011;32377;52.182;5.398;2022-07-10T05:48:55;7.22;;;2.30;;
46651;SDS011;32377;52.182;5.398;2022-07-10T05:51:20;11.85;;;2.70;;
46651;SDS011;32377;52.182;5.398;2022-07-10T05:53:46;5.82;;;2.13;;
46651;SDS011;32377;52.182;5.398;2022-07-10T05:56:11;10.73;;;2.33;;
46651;SDS011;32377;52.182;5.398;2022-07-10T05:58:37;6.72;;;2.03;;
46651;SDS011;32377;52.182;5.398;2022-07-10T06:01:03;11.80;;;2.03;;
46651;SDS011;32377;52.182;5.398;2022-07-10T06:03:28;7.75;;;1.77;;
46651;SDS011;32377;52.182;5.398;2022-07-10T06:05:54;11.20;;;2.22;;
46651;SDS011;32377;52.182;5.398;2022-07-10T06:08:19;12.25;;;2.00;;
46651;SDS011;32377;52.182;5.398;2022-07-10T06:10:45;11.20;;;2.03;;
46651;SDS011;32377;52.182;5.398;2022-07-10T06:13:11;10.02;;;2.05;;
46651;SDS011;32377;52.182;5.398;2022-07-10T06:15:36;7.78;;;2.22;;
46651;SDS011;32377;52.182;5.398;2022-07-10T06:18:02;9.18;;;2.00;;
46651;SDS011;32377;52.182;5.398;2022-07-10T06:20:28;11.80;;;2.05;;
46651;SDS011;32377;52.182;5.398;2022-07-10T06:22:56;11.77;;;2.15;;
46651;SDS011;32377;52.182;5.398;2022-07-10T06:25:21;10.18;;;1.88;;
46651;SDS011;32377;52.182;5.398;2022-07-10T06:27:47;16.13;;;2.38;;
46651;SDS011;32377;52.182;5.398;2022-07-10T06:30:12;9.85;;;2.67;;
46651;SDS011;32377;52.182;5.398;2022-07-10T06:32:38;9.68;;;2.20;;
46651;SDS011;32377;52.182;5.398;2022-07-10T06:35:04;11.48;;;2.42;;
46651;SDS011;32377;52.182;5.398;2022-07-10T06:37:32;8.23;;;2.10;;
46651;SDS011;32377;52.182;5.398;2022-07-10T06:39:58;16.98;;;2.47;;
46651;SDS011;32377;52.182;5.398;2022-07-10T06:42:23;10.88;;;1.58;;
46651;SDS011;32377;52.182;5.398;2022-07-10T06:44:49;6.93;;;1.92;;
46651;SDS011;32377;52.182;5.398;2022-07-10T06:47:16;12.02;;;2.50;;
46651;SDS011;32377;52.182;5.398;2022-07-10T06:50:02;9.32;;;2.25;;
46651;SDS011;32377;52.182;5.398;2022-07-10T06:52:31;9.50;;;2.30;;
46651;SDS011;32377;52.182;5.398;2022-07-10T06:55:00;10.27;;;2.70;;
46651;SDS011;32377;52.182;5.398;2022-07-10T06:57:27;7.40;;;2.10;;
46651;SDS011;32377;52.182;5.398;2022-07-10T06:59:53;7.60;;;2.03;;
46651;SDS011;32377;52.182;5.398;2022-07-10T07:02:19;9.90;;;1.85;;
46651;SDS011;32377;52.182;5.398;2022-07-10T07:04:45;7.05;;;1.52;;
46651;SDS011;32377;52.182;5.398;2022-07-10T07:07:11;12.25;;;1.70;;
46651;SDS011;32377;52.182;5.398;2022-07-10T07:09:37;11.02;;;2.08;;
46651;SDS011;32377;52.182;5.398;2022-07-10T07:12:03;9.10;;;2.20;;
46651;SDS011;32377;52.182;5.398;2022-07-10T07:14:29;12.75;;;1.88;;
46651;SDS011;32377;52.182;5.398;2022-07-10T07:16:55;5.90;;;2.30;;
46651;SDS011;32377;52.182;5.398;2022-07-10T07:19:43;10.40;;;1.90;;
46651;SDS011;32377;52.182;5.398;2022-07-10T07:22:27;8.98;;;2.00;;
46651;SDS011;32377;52.182;5.398;2022-07-10T07:25:12;8.15;;;1.63;;
46651;SDS011;32377;52.182;5.398;2022-07-10T07:27:37;5.50;;;1.40;;
46651;SDS011;32377;52.182;5.398;2022-07-10T07:30:04;7.40;;;1.42;;
46651;SDS011;32377;52.182;5.398;2022-07-10T07:32:31;6.47;;;1.52;;
46651;SDS011;32377;52.182;5.398;2022-07-10T07:34:58;3.38;;;1.55;;
46651;SDS011;32377;52.182;5.398;2022-07-10T07:37:34;8.38;;;1.80;;
46651;SDS011;32377;52.182;5.398;2022-07-10T07:40:11;8.85;;;1.88;;
46651;SDS011;32377;52.182;5.398;2022-07-10T07:42:38;7.65;;;2.05;;
46651;SDS011;32377;52.182;5.398;2022-07-10T07:45:06;9.50;;;2.20;;
46651;SDS011;32377;52.182;5.398;2022-07-10T07:47:42;7.18;;;1.58;;
46651;SDS011;32377;52.182;5.398;2022-07-10T07:50:09;8.57;;;1.60;;
46651;SDS011;32377;52.182;5.398;2022-07-10T07:52:36;13.63;;;1.67;;
46651;SDS011;32377;52.182;5.398;2022-07-10T07:55:02;7.50;;;1.70;;
46651;SDS011;32377;52.182;5.398;2022-07-10T07:57:27;7.20;;;1.67;;
46651;SDS011;32377;52.182;5.398;2022-07-10T07:59:53;5.35;;;1.63;;
46651;SDS011;32377;52.182;5.398;2022-07-10T08:02:18;6.95;;;2.08;;
46651;SDS011;32377;52.182;5.398;2022-07-10T08:04:44;7.07;;;1.73;;
46651;SDS011;32377;52.182;5.398;2022-07-10T08:07:09;5.07;;;1.50;;
46651;SDS011;32377;52.182;5.398;2022-07-10T08:09:35;8.35;;;2.00;;
46651;SDS011;32377;52.182;5.398;2022-07-10T08:12:00;7.32;;;1.90;;
46651;SDS011;32377;52.182;5.398;2022-07-10T08:14:26;8.40;;;2.00;;
46651;SDS011;32377;52.182;5.398;2022-07-10T08:16:52;6.25;;;1.80;;
46651;SDS011;32377;52.182;5.398;2022-07-10T08:19:17;12.30;;;1.80;;
46651;SDS011;32377;52.182;5.398;2022-07-10T08:21:43;6.30;;;1.38;;
46651;SDS011;32377;52.182;5.398;2022-07-10T08:24:08;4.85;;;1.25;;
46651;SDS011;32377;52.182;5.398;2022-07-10T08:26:34;4.60;;;1.63;;
46651;SDS011;32377;52.182;5.398;2022-07-10T08:29:00;3.80;;;1.33;;
46651;SDS011;32377;52.182;5.398;2022-07-10T08:31:25;9.20;;;1.80;;
46651;SDS011;32377;52.182;5.398;2022-07-10T08:33:51;4.75;;;1.45;;
46651;SDS011;32377;52.182;5.398;2022-07-10T08:36:17;3.65;;;1.70;;
46651;SDS011;32377;52.182;5.398;2022-07-10T08:38:43;5.15;;;1.77;;
46651;SDS011;32377;52.182;5.398;2022-07-10T08:41:08;5.55;;;1.83;;
46651;SDS011;32377;52.182;5.398;2022-07-10T08:43:37;6.43;;;1.55;;
46651;SDS011;32377;52.182;5.398;2022-07-10T08:46:03;6.70;;;1.88;;
46651;SDS011;32377;52.182;5.398;2022-07-10T08:48:30;5.20;;;1.92;;
46651;SDS011;32377;52.182;5.398;2022-07-10T08:50:58;6.32;;;1.70;;
46651;SDS011;32377;52.182;5.398;2022-07-10T08:53:31;8.27;;;1.70;;
46651;SDS011;32377;52.182;5.398;2022-07-10T08:55:58;5.38;;;1.58;;
46651;SDS011;32377;52.182;5.398;2022-07-10T08:58:24;4.38;;;1.52;;
46651;SDS011;32377;52.182;5.398;2022-07-10T09:00:51;4.40;;;1.60;;
46651;SDS011;32377;52.182;5.398;2022-07-10T09:03:18;4.20;;;1.40;;
46651;SDS011;32377;52.182;5.398;2022-07-10T09:05:43;5.07;;;1.92;;
46651;SDS011;32377;52.182;5.398;2022-07-10T09:08:22;5.80;;;2.15;;
46651;SDS011;32377;52.182;5.398;2022-07-10T09:10:49;6.97;;;1.70;;
46651;SDS011;32377;52.182;5.398;2022-07-10T09:13:15;4.45;;;1.45;;
46651;SDS011;32377;52.182;5.398;2022-07-10T09:15:47;5.32;;;1.60;;
46651;SDS011;32377;52.182;5.398;2022-07-10T09:18:13;3.47;;;1.33;;
46651;SDS011;32377;52.182;5.398;2022-07-10T09:20:44;6.50;;;1.50;;
46651;SDS011;32377;52.182;5.398;2022-07-10T09:25:51;4.68;;;1.60;;
46651;SDS011;32377;52.182;5.398;2022-07-10T09:28:21;3.00;;;1.23;;
46651;SDS011;32377;52.182;5.398;2022-07-10T09:30:48;2.85;;;1.40;;
46651;SDS011;32377;52.182;5.398;2022-07-10T09:33:27;5.30;;;1.58;;
46651;SDS011;32377;52.182;5.398;2022-07-10T09:38:56;4.85;;;1.55;;
46651;SDS011;32377;52.182;5.398;2022-07-10T09:41:28;4.78;;;1.30;;
46651;SDS011;32377;52.182;5.398;2022-07-10T09:44:02;5.88;;;1.65;;
46651;SDS011;32377;52.182;5.398;2022-07-10T09:46:33;5.05;;;1.50;;
46651;SDS011;32377;52.182;5.398;2022-07-10T09:49:00;5.80;;;1.35;;
46651;SDS011;32377;52.182;5.398;2022-07-10T09:51:34;3.65;;;1.30;;
46651;SDS011;32377;52.182;5.398;2022-07-10T09:54:02;3.83;;;1.40;;
46651;SDS011;32377;52.182;5.398;2022-07-10T09:56:32;2.75;;;1.17;;
46651;SDS011;32377;52.182;5.398;2022-07-10T09:59:02;4.40;;;1.30;;
46651;SDS011;32377;52.182;5.398;2022-07-10T10:01:34;3.05;;;1.20;;
46651;SDS011;32377;52.182;5.398;2022-07-10T10:04:00;3.63;;;1.30;;
46651;SDS011;32377;52.182;5.398;2022-07-10T10:06:28;2.40;;;1.20;;
46651;SDS011;32377;52.182;5.398;2022-07-10T10:08:56;2.58;;;1.35;;
46651;SDS011;32377;52.182;5.398;2022-07-10T10:11:27;6.50;;;1.58;;
46651;SDS011;32377;52.182;5.398;2022-07-10T10:13:55;3.65;;;1.20;;
46651;SDS011;32377;52.182;5.398;2022-07-10T10:16:21;4.35;;;1.30;;
46651;SDS011;32377;52.182;5.398;2022-07-10T10:18:47;1.98;;;1.05;;
46651;SDS011;32377;52.182;5.398;2022-07-10T10:21:34;3.17;;;1.48;;
46651;SDS011;32377;52.182;5.398;2022-07-10T10:24:01;3.65;;;1.40;;
46651;SDS011;32377;52.182;5.398;2022-07-10T10:26:27;4.63;;;1.52;;
46651;SDS011;32377;52.182;5.398;2022-07-10T10:28:54;5.50;;;1.67;;
46651;SDS011;32377;52.182;5.398;2022-07-10T10:31:22;6.15;;;1.73;;
46651;SDS011;32377;52.182;5.398;2022-07-10T10:33:49;3.42;;;1.20;;
46651;SDS011;32377;52.182;5.398;2022-07-10T10:52:17;4.38;;;1.25;;
46651;SDS011;32377;52.182;5.398;2022-07-10T10:57:22;4.82;;;1.58;;
46651;SDS011;32377;52.182;5.398;2022-07-10T10:59:56;4.05;;;1.40;;
46651;SDS011;32377;52.182;5.398;2022-07-10T11:02:29;3.53;;;1.30;;
46651;SDS011;32377;52.182;5.398;2022-07-10T11:07:56;2.10;;;1.10;;
46651;SDS011;32377;52.182;5.398;2022-07-10T11:13:11;1.80;;;1.10;;
46651;SDS011;32377;52.182;5.398;2022-07-10T11:15:41;5.35;;;1.52;;
46651;SDS011;32377;52.182;5.398;2022-07-10T11:18:15;5.68;;;1.30;;
46651;SDS011;32377;52.182;5.398;2022-07-10T11:20:48;2.38;;;1.15;;
46651;SDS011;32377;52.182;5.398;2022-07-10T11:25:59;3.97;;;1.55;;
46651;SDS011;32377;52.182;5.398;2022-07-10T11:31:23;2.95;;;1.15;;
46651;SDS011;32377;52.182;5.398;2022-07-10T11:33:50;5.80;;;1.40;;
46651;SDS011;32377;52.182;5.398;2022-07-10T11:36:18;4.97;;;1.58;;
46651;SDS011;32377;52.182;5.398;2022-07-10T11:38:57;6.28;;;1.70;;
46651;SDS011;32377;52.182;5.398;2022-07-10T11:41:27;3.63;;;1.30;;
46651;SDS011;32377;52.182;5.398;2022-07-10T11:43:54;6.18;;;1.60;;
46651;SDS011;32377;52.182;5.398;2022-07-10T11:46:21;2.70;;;1.25;;
46651;SDS011;32377;52.182;5.398;2022-07-10T11:48:49;3.72;;;1.60;;
46651;SDS011;32377;52.182;5.398;2022-07-10T11:51:25;5.53;;;1.23;;
46651;SDS011;32377;52.182;5.398;2022-07-10T11:53:58;4.90;;;1.30;;
46651;SDS011;32377;52.182;5.398;2022-07-10T11:56:27;8.27;;;1.60;;
46651;SDS011;32377;52.182;5.398;2022-07-10T11:59:06;3.95;;;1.23;;
46651;SDS011;32377;52.182;5.398;2022-07-10T12:01:49;3.33;;;1.30;;
46651;SDS011;32377;52.182;5.398;2022-07-10T12:04:17;8.70;;;2.05;;
46651;SDS011;32377;52.182;5.398;2022-07-10T12:06:45;4.70;;;1.20;;
46651;SDS011;32377;52.182;5.398;2022-07-10T12:09:13;5.72;;;1.40;;
46651;SDS011;32377;52.182;5.398;2022-07-10T12:11:43;4.70;;;1.42;;
46651;SDS011;32377;52.182;5.398;2022-07-10T12:16:36;6.80;;;1.52;;
46651;SDS011;32377;52.182;5.398;2022-07-10T12:19:02;4.75;;;1.10;;
46651;SDS011;32377;52.182;5.398;2022-07-10T12:21:28;2.50;;;1.10;;
46651;SDS011;32377;52.182;5.398;2022-07-10T12:23:54;2.38;;;1.25;;
46651;SDS011;32377;52.182;5.398;2022-07-10T12:26:20;4.03;;;1.33;;
46651;SDS011;32377;52.182;5.398;2022-07-10T12:28:49;1.92;;;1.10;;
46651;SDS011;32377;52.182;5.398;2022-07-10T12:31:22;4.80;;;1.38;;
46651;SDS011;32377;52.182;5.398;2022-07-10T12:34:07;2.95;;;1.30;;
46651;SDS011;32377;52.182;5.398;2022-07-10T12:36:42;2.78;;;1.20;;
46651;SDS011;32377;52.182;5.398;2022-07-10T12:39:08;2.88;;;1.30;;
46651;SDS011;32377;52.182;5.398;2022-07-10T12:41:34;5.68;;;1.30;;
46651;SDS011;32377;52.182;5.398;2022-07-10T12:44:29;3.90;;;1.27;;
46651;SDS011;32377;52.182;5.398;2022-07-10T12:47:12;3.38;;;1.15;;
46651;SDS011;32377;52.182;5.398;2022-07-10T12:49:48;4.93;;;1.15;;
46651;SDS011;32377;52.182;5.398;2022-07-10T12:52:27;4.55;;;1.40;;
46651;SDS011;32377;52.182;5.398;2022-07-10T13:00:17;2.08;;;1.23;;
46651;SDS011;32377;52.182;5.398;2022-07-10T13:02:48;4.88;;;1.23;;
46651;SDS011;32377;52.182;5.398;2022-07-10T13:05:29;2.70;;;1.35;;
46651;SDS011;32377;52.182;5.398;2022-07-10T13:10:45;4.72;;;1.30;;
46651;SDS011;32377;52.182;5.398;2022-07-10T13:13:15;4.10;;;1.30;;
46651;SDS011;32377;52.182;5.398;2022-07-10T13:15:40;3.20;;;1.10;;
46651;SDS011;32377;52.182;5.398;2022-07-10T13:18:18;2.47;;;1.23;;
46651;SDS011;32377;52.182;5.398;2022-07-10T13:20:46;3.85;;;1.52;;
46651;SDS011;32377;52.182;5.398;2022-07-10T13:23:13;4.20;;;1.20;;
46651;SDS011;32377;52.182;5.398;2022-07-10T13:25:39;4.40;;;1.00;;
46651;SDS011;32377;52.182;5.398;2022-07-10T13:28:05;4.72;;;1.50;;
46651;SDS011;32377;52.182;5.398;2022-07-10T13:30:32;5.00;;;1.40;;
46651;SDS011;32377;52.182;5.398;2022-07-10T13:32:58;3.90;;;1.25;;
46651;SDS011;32377;52.182;5.398;2022-07-10T13:35:24;2.03;;;1.23;;
46651;SDS011;32377;52.182;5.398;2022-07-10T13:37:56;2.65;;;1.20;;
46651;SDS011;32377;52.182;5.398;2022-07-10T13:40:27;4.70;;;1.38;;
46651;SDS011;32377;52.182;5.398;2022-07-10T13:42:54;3.25;;;1.20;;
46651;SDS011;32377;52.182;5.398;2022-07-10T13:45:21;6.40;;;1.52;;
46651;SDS011;32377;52.182;5.398;2022-07-10T13:47:47;9.40;;;1.63;;
46651;SDS011;32377;52.182;5.398;2022-07-10T13:50:13;4.32;;;1.20;;
46651;SDS011;32377;52.182;5.398;2022-07-10T13:52:39;2.42;;;1.30;;
46651;SDS011;32377;52.182;5.398;2022-07-10T13:55:05;2.40;;;1.25;;
46651;SDS011;32377;52.182;5.398;2022-07-10T13:57:31;4.50;;;1.48;;
46651;SDS011;32377;52.182;5.398;2022-07-10T13:59:57;4.43;;;1.50;;
46651;SDS011;32377;52.182;5.398;2022-07-10T14:02:23;3.17;;;1.27;;
46651;SDS011;32377;52.182;5.398;2022-07-10T14:04:48;2.78;;;1.63;;
46651;SDS011;32377;52.182;5.398;2022-07-10T14:07:14;3.25;;;1.40;;
46651;SDS011;32377;52.182;5.398;2022-07-10T14:09:39;4.75;;;1.88;;
46651;SDS011;32377;52.182;5.398;2022-07-10T14:12:05;5.20;;;1.73;;
46651;SDS011;32377;52.182;5.398;2022-07-10T14:14:31;6.03;;;1.70;;
46651;SDS011;32377;52.182;5.398;2022-07-10T14:16:57;7.80;;;1.60;;
46651;SDS011;32377;52.182;5.398;2022-07-10T14:19:22;3.95;;;1.92;;
46651;SDS011;32377;52.182;5.398;2022-07-10T14:21:48;2.60;;;1.27;;
46651;SDS011;32377;52.182;5.398;2022-07-10T14:24:13;3.65;;;1.50;;
46651;SDS011;32377;52.182;5.398;2022-07-10T14:26:39;4.93;;;1.50;;
46651;SDS011;32377;52.182;5.398;2022-07-10T14:29:05;5.32;;;1.95;;
46651;SDS011;32377;52.182;5.398;2022-07-10T14:31:31;5.75;;;2.05;;
46651;SDS011;32377;52.182;5.398;2022-07-10T14:33:57;5.53;;;1.85;;
46651;SDS011;32377;52.182;5.398;2022-07-10T14:36:22;7.40;;;2.25;;
46651;SDS011;32377;52.182;5.398;2022-07-10T14:38:51;4.28;;;1.70;;
46651;SDS011;32377;52.182;5.398;2022-07-10T14:41:19;5.93;;;1.75;;
46651;SDS011;32377;52.182;5.398;2022-07-10T14:43:45;6.50;;;1.90;;
46651;SDS011;32377;52.182;5.398;2022-07-10T14:46:11;5.32;;;1.75;;
46651;SDS011;32377;52.182;5.398;2022-07-10T14:48:36;6.68;;;1.70;;
46651;SDS011;32377;52.182;5.398;2022-07-10T14:51:02;6.10;;;1.90;;
46651;SDS011;32377;52.182;5.398;2022-07-10T14:53:28;4.40;;;1.40;;
46651;SDS011;32377;52.182;5.398;2022-07-10T14:55:54;7.03;;;1.80;;
46651;SDS011;32377;52.182;5.398;2022-07-10T14:58:20;3.55;;;1.45;;
46651;SDS011;32377;52.182;5.398;2022-07-10T15:00:45;4.35;;;1.40;;
46651;SDS011;32377;52.182;5.398;2022-07-10T15:03:11;2.92;;;1.33;;
46651;SDS011;32377;52.182;5.398;2022-07-10T15:05:36;4.22;;;1.40;;
46651;SDS011;32377;52.182;5.398;2022-07-10T15:08:02;5.38;;;1.55;;
46651;SDS011;32377;52.182;5.398;2022-07-10T15:10:28;7.18;;;2.10;;
46651;SDS011;32377;52.182;5.398;2022-07-10T15:12:57;3.20;;;1.65;;
46651;SDS011;32377;52.182;5.398;2022-07-10T15:15:24;4.55;;;1.40;;
46651;SDS011;32377;52.182;5.398;2022-07-10T15:17:49;6.00;;;2.05;;
46651;SDS011;32377;52.182;5.398;2022-07-10T15:20:15;6.75;;;1.80;;
46651;SDS011;32377;52.182;5.398;2022-07-10T15:22:49;8.27;;;1.77;;
46651;SDS011;32377;52.182;5.398;2022-07-10T15:25:15;5.53;;;1.65;;
46651;SDS011;32377;52.182;5.398;2022-07-10T15:27:40;4.82;;;1.50;;
46651;SDS011;32377;52.182;5.398;2022-07-10T15:30:07;4.15;;;1.55;;
46651;SDS011;32377;52.182;5.398;2022-07-10T15:32:36;6.72;;;1.90;;